createdAt,value
2023-03-26T00:01:40.899Z,9.13
2023-03-26T00:04:09.463Z,9.12
2023-03-26T00:06:39.995Z,9.09
2023-03-26T00:09:13.813Z,9.04
2023-03-26T00:11:44.201Z,9.02
2023-03-26T00:14:14.254Z,9.00
2023-03-26T00:16:42.976Z,8.99
2023-03-26T00:19:12.937Z,8.98
2023-03-26T00:21:41.896Z,8.99
2023-03-26T00:24:15.503Z,8.99
2023-03-26T00:26:45.039Z,8.99
2023-03-26T00:29:15.788Z,8.98
2023-03-26T00:31:46.680Z,8.97
2023-03-26T00:34:18.807Z,8.98
2023-03-26T00:36:47.582Z,8.96
2023-03-26T00:39:18.107Z,8.94
2023-03-26T00:41:46.629Z,8.93
2023-03-26T00:44:15.103Z,8.92
2023-03-26T00:46:43.715Z,8.90
2023-03-26T00:49:14.988Z,8.89
2023-03-26T00:51:43.625Z,8.88
2023-03-26T00:54:12.987Z,8.86
2023-03-26T00:56:41.581Z,8.83
2023-03-26T00:59:10.700Z,8.82
2023-03-26T01:01:40.136Z,8.81
2023-03-26T01:04:31.720Z,8.77
2023-03-26T01:07:11.965Z,8.72
2023-03-26T01:09:45.208Z,8.69
2023-03-26T01:12:18.856Z,8.67
2023-03-26T01:14:50.972Z,8.65
2023-03-26T01:17:22.269Z,8.62
2023-03-26T01:20:07.747Z,8.55
2023-03-26T01:22:42.255Z,8.49
2023-03-26T01:25:11.433Z,8.45
2023-03-26T01:27:58.373Z,8.40
2023-03-26T01:30:37.313Z,8.34
2023-03-26T01:33:14.434Z,8.30
2023-03-26T01:36:01.975Z,8.23
2023-03-26T01:38:41.162Z,8.17
2023-03-26T01:41:17.914Z,8.13
2023-03-26T01:44:03.269Z,8.09
2023-03-26T01:46:37.226Z,8.05
2023-03-26T01:49:13.284Z,8.02
2023-03-26T01:51:42.839Z,7.97
2023-03-26T01:54:17.188Z,7.94
2023-03-26T01:56:54.728Z,7.92
2023-03-26T01:59:29.220Z,7.91
2023-03-26T02:02:14.625Z,7.89
2023-03-26T02:05:06.630Z,7.86
2023-03-26T02:07:42.308Z,7.82
2023-03-26T02:10:24.557Z,7.78
2023-03-26T02:12:54.390Z,7.74
2023-03-26T02:15:23.595Z,7.71
2023-03-26T02:17:57.761Z,7.68
2023-03-26T02:20:30.465Z,7.65
2023-03-26T02:23:00.036Z,7.65
2023-03-26T02:25:29.228Z,7.66
2023-03-26T02:27:59.232Z,7.65
2023-03-26T02:30:33.947Z,7.63
2023-03-26T02:33:07.637Z,7.61
2023-03-26T02:35:40.627Z,7.59
2023-03-26T02:38:14.594Z,7.57
2023-03-26T02:40:43.615Z,7.53
2023-03-26T02:43:12.141Z,7.50
2023-03-26T02:45:41.513Z,7.47
2023-03-26T02:48:34.853Z,7.43
2023-03-26T02:51:27.832Z,7.36
2023-03-26T02:54:23.473Z,7.32
2023-03-26T02:56:57.951Z,7.30
2023-03-26T02:59:46.564Z,7.32
2023-03-26T03:02:38.591Z,7.31
2023-03-26T03:05:38.285Z,7.29
2023-03-26T03:08:34.626Z,7.28
2023-03-26T03:11:18.175Z,7.23
2023-03-26T03:13:51.949Z,7.18
2023-03-26T03:16:23.859Z,7.15
2023-03-26T03:18:57.785Z,7.12
2023-03-26T03:21:41.831Z,7.10
2023-03-26T03:24:11.817Z,7.08
2023-03-26T03:26:46.418Z,7.07
2023-03-26T03:29:29.251Z,7.03
2023-03-26T03:32:00.287Z,7.00
2023-03-26T03:34:50.934Z,6.96
2023-03-26T03:37:20.461Z,6.93
2023-03-26T03:39:54.466Z,6.90
2023-03-26T03:42:27.734Z,6.87
2023-03-26T03:44:58.278Z,6.87
2023-03-26T03:47:45.764Z,6.89
2023-03-26T03:50:15.584Z,6.87
2023-03-26T03:52:55.995Z,6.84
2023-03-26T03:55:28.709Z,6.81
2023-03-26T03:57:58.571Z,6.76
2023-03-26T04:00:27.641Z,6.71
2023-03-26T04:03:33.696Z,6.65
2023-03-26T04:06:07.078Z,6.61
2023-03-26T04:08:36.531Z,6.58
2023-03-26T04:11:07.729Z,6.57
2023-03-26T04:13:56.135Z,6.55
2023-03-26T04:16:41.872Z,6.51
2023-03-26T04:19:10.500Z,6.47
2023-03-26T04:21:39.775Z,6.44
2023-03-26T04:24:09.853Z,6.40
2023-03-26T04:27:12.905Z,6.36
2023-03-26T04:29:47.226Z,6.35
2023-03-26T04:32:26.706Z,6.36
2023-03-26T04:35:00.517Z,6.36
2023-03-26T04:37:40.000Z,6.37
2023-03-26T04:40:20.715Z,6.37
2023-03-26T04:43:02.668Z,6.35
2023-03-26T04:45:55.136Z,6.34
2023-03-26T04:48:25.951Z,6.32
2023-03-26T04:51:14.452Z,6.32
2023-03-26T04:53:55.980Z,6.31
2023-03-26T05:00:17.396Z,6.42
2023-03-26T05:02:54.381Z,6.42
2023-03-26T05:05:24.921Z,6.43
2023-03-26T05:07:54.341Z,6.44
2023-03-26T05:10:24.341Z,6.43
2023-03-26T05:13:06.370Z,6.42
2023-03-26T05:15:47.372Z,6.40
2023-03-26T05:18:32.588Z,6.40
2023-03-26T05:21:02.780Z,6.43
2023-03-26T05:23:32.025Z,6.44
2023-03-26T05:26:13.258Z,6.49
2023-03-26T05:28:42.597Z,6.55
2023-03-26T05:31:22.615Z,6.61
2023-03-26T05:33:53.592Z,6.65
2023-03-26T05:36:22.743Z,6.68
2023-03-26T05:39:00.916Z,6.70
2023-03-26T05:41:48.324Z,6.72
2023-03-26T05:44:20.238Z,6.76
2023-03-26T05:46:48.952Z,6.78
2023-03-26T05:49:22.576Z,6.80
2023-03-26T05:51:51.966Z,6.83
2023-03-26T05:54:36.509Z,6.86
2023-03-26T05:57:28.606Z,6.86
2023-03-26T06:00:16.610Z,6.86
2023-03-26T06:02:48.287Z,6.88
2023-03-26T06:05:38.191Z,6.91
2023-03-26T06:08:19.722Z,6.98
2023-03-26T06:11:01.713Z,7.09
2023-03-26T06:13:34.503Z,7.19
2023-03-26T06:16:03.263Z,7.26
2023-03-26T06:18:38.338Z,7.33
2023-03-26T06:21:29.403Z,7.40
2023-03-26T06:24:08.014Z,7.49
2023-03-26T06:26:44.437Z,7.57
2023-03-26T06:29:24.259Z,7.65
2023-03-26T06:32:19.774Z,7.75
2023-03-26T06:35:07.532Z,7.92
2023-03-26T06:37:39.172Z,8.15
2023-03-26T06:40:09.184Z,8.37
2023-03-26T06:43:11.099Z,8.51
2023-03-26T06:46:15.714Z,8.68
2023-03-26T06:49:07.093Z,8.88
2023-03-26T06:52:11.112Z,9.02
2023-03-26T06:54:50.026Z,9.16
2023-03-26T06:57:57.120Z,9.30
2023-03-26T07:01:05.331Z,9.48
2023-03-26T07:03:52.637Z,9.62
2023-03-26T07:06:39.730Z,9.71
2023-03-26T07:09:30.369Z,9.83
2023-03-26T07:12:11.338Z,9.98
2023-03-26T07:14:52.625Z,10.08
2023-03-26T07:17:44.682Z,10.23
2023-03-26T07:20:17.368Z,10.36
2023-03-26T07:22:47.338Z,10.43
2023-03-26T07:25:35.715Z,10.50
2023-03-26T07:29:03.750Z,10.60
2023-03-26T07:31:59.010Z,10.75
2023-03-26T07:35:17.443Z,10.95
2023-03-26T07:38:09.861Z,11.10
2023-03-26T07:41:56.101Z,11.17
2023-03-26T07:45:18.867Z,11.27
2023-03-26T07:48:18.872Z,11.14
2023-03-26T07:51:07.538Z,11.04
2023-03-26T07:54:07.022Z,11.07
2023-03-26T07:57:07.672Z,11.11
2023-03-26T08:00:14.701Z,11.22
2023-03-26T08:03:32.253Z,11.48
2023-03-26T08:06:06.048Z,11.79
2023-03-26T08:08:53.955Z,11.97
2023-03-26T08:11:54.895Z,12.09
2023-03-26T08:14:41.890Z,12.25
2023-03-26T08:17:16.421Z,12.43
2023-03-26T08:20:09.321Z,12.47
2023-03-26T08:22:43.419Z,12.44
2023-03-26T08:25:30.108Z,12.49
2023-03-26T08:28:09.965Z,12.77
2023-03-26T08:30:41.891Z,13.16
2023-03-26T08:33:18.640Z,13.26
2023-03-26T08:35:49.104Z,13.25
2023-03-26T08:38:22.334Z,13.38
2023-03-26T08:41:12.617Z,13.40
2023-03-26T08:43:41.473Z,13.40
2023-03-26T08:46:28.014Z,13.53
2023-03-26T08:49:16.943Z,13.68
2023-03-26T08:52:05.071Z,13.78
2023-03-26T08:54:38.956Z,13.84
2023-03-26T08:57:17.167Z,13.86
2023-03-26T08:59:51.749Z,13.69
2023-03-26T09:02:47.882Z,13.61
2023-03-26T09:05:25.965Z,13.66
2023-03-26T09:08:20.635Z,13.62
2023-03-26T09:11:24.758Z,13.59
2023-03-26T09:14:38.193Z,13.63
2023-03-26T09:17:09.568Z,13.68
2023-03-26T09:20:19.042Z,13.72
2023-03-26T09:23:14.650Z,13.79
2023-03-26T09:26:09.983Z,13.77
2023-03-26T09:28:54.981Z,13.62
2023-03-26T09:31:42.496Z,13.58
2023-03-26T09:34:22.679Z,13.60
2023-03-26T09:37:57.329Z,13.53
2023-03-26T09:40:37.514Z,13.67
2023-03-26T09:43:43.882Z,13.65
2023-03-26T09:46:40.618Z,13.73
2023-03-26T09:49:41.565Z,13.68
2023-03-26T09:52:32.150Z,13.61
2023-03-26T09:55:32.637Z,13.67
2023-03-26T09:58:32.473Z,13.69
2023-03-26T10:01:26.464Z,13.62
2023-03-26T10:04:07.569Z,13.64
2023-03-26T10:06:50.531Z,13.58
2023-03-26T10:09:31.718Z,13.51
2023-03-26T10:12:20.781Z,13.52
2023-03-26T10:14:58.873Z,13.58
2023-03-26T10:17:51.476Z,13.66
2023-03-26T10:20:39.985Z,13.85
2023-03-26T10:23:14.860Z,13.88
2023-03-26T10:26:14.596Z,13.98
2023-03-26T10:29:08.027Z,14.11
2023-03-26T10:32:08.724Z,14.22
2023-03-26T10:34:53.488Z,14.22
2023-03-26T10:37:21.992Z,14.28
2023-03-26T10:40:06.221Z,14.26
2023-03-26T10:43:13.114Z,14.32
2023-03-26T10:45:52.110Z,14.32
2023-03-26T10:48:31.166Z,14.34
2023-03-26T10:51:21.729Z,14.42
2023-03-26T10:53:53.932Z,14.49
2023-03-26T10:56:32.821Z,14.55
2023-03-26T10:59:14.015Z,14.50
2023-03-26T11:01:48.687Z,14.46
2023-03-26T11:04:42.083Z,14.47
2023-03-26T11:07:19.185Z,14.53
2023-03-26T11:10:16.887Z,14.50
2023-03-26T11:12:53.270Z,14.54
2023-03-26T11:15:31.600Z,14.57
2023-03-26T11:18:06.254Z,14.60
2023-03-26T11:20:47.069Z,14.58
2023-03-26T11:24:05.515Z,14.60
2023-03-26T11:26:56.133Z,14.49
2023-03-26T11:29:33.141Z,14.45
2023-03-26T11:32:17.861Z,14.42
2023-03-26T11:35:02.666Z,14.43
2023-03-26T11:37:37.914Z,14.45
2023-03-26T11:40:15.970Z,14.46
2023-03-26T11:42:50.319Z,14.54
2023-03-26T11:45:25.646Z,14.65
2023-03-26T11:48:04.780Z,14.75
2023-03-26T11:50:39.004Z,14.75
2023-03-26T11:53:13.826Z,14.78
2023-03-26T11:55:52.685Z,14.81
2023-03-26T11:58:44.158Z,14.86
2023-03-26T12:01:22.937Z,14.88
2023-03-26T12:04:19.084Z,14.88
2023-03-26T12:06:57.843Z,14.95
2023-03-26T12:09:31.722Z,15.07
2023-03-26T12:12:03.327Z,15.17
2023-03-26T12:14:37.245Z,15.18
2023-03-26T12:17:09.139Z,14.98
2023-03-26T12:19:41.877Z,14.93
2023-03-26T12:22:37.535Z,14.90
2023-03-26T12:25:19.396Z,14.78
2023-03-26T12:27:59.032Z,14.69
2023-03-26T12:30:39.717Z,14.67
2023-03-26T12:33:19.952Z,14.69
2023-03-26T12:35:49.589Z,14.69
2023-03-26T12:38:35.969Z,14.74
2023-03-26T12:44:42.568Z,14.80
2023-03-26T12:44:49.858Z,14.84
2023-03-26T12:48:00.299Z,14.81
2023-03-26T12:50:34.190Z,14.59
2023-03-26T12:53:25.689Z,14.42
2023-03-26T12:56:21.959Z,14.23
2023-03-26T12:59:05.803Z,14.06
2023-03-26T13:02:09.471Z,14.02
2023-03-26T13:05:16.384Z,13.93
2023-03-26T13:08:07.912Z,13.81
2023-03-26T13:11:07.623Z,13.76
2023-03-26T13:13:58.172Z,13.83
2023-03-26T13:16:48.248Z,13.83
2023-03-26T13:19:21.583Z,13.81
2023-03-26T13:21:59.545Z,13.77
2023-03-26T13:24:31.383Z,13.68
2023-03-26T13:27:06.609Z,13.64
2023-03-26T13:29:44.097Z,13.67
2023-03-26T13:32:15.076Z,13.76
2023-03-26T13:35:07.969Z,13.89
2023-03-26T13:37:55.255Z,14.04
2023-03-26T13:40:40.011Z,14.15
2023-03-26T13:43:14.451Z,14.22
2023-03-26T13:46:22.803Z,14.25
2023-03-26T13:48:58.741Z,14.25
2023-03-26T13:51:48.567Z,14.28
2023-03-26T13:54:36.038Z,14.24
2023-03-26T13:57:10.487Z,14.22
2023-03-26T14:00:09.762Z,14.25
2023-03-26T14:02:43.029Z,14.20
2023-03-26T14:05:42.849Z,14.19
2023-03-26T14:08:20.538Z,14.29
2023-03-26T14:10:55.977Z,14.39
2023-03-26T14:13:33.284Z,14.47
2023-03-26T14:16:23.832Z,14.53
2023-03-26T14:19:25.021Z,14.60
2023-03-26T14:22:40.756Z,14.66
2023-03-26T14:25:46.914Z,14.65
2023-03-26T14:28:33.059Z,14.62
2023-03-26T14:31:20.956Z,14.52
2023-03-26T14:34:39.020Z,14.48
2023-03-26T14:37:33.118Z,14.50
2023-03-26T14:40:17.242Z,14.55
2023-03-26T14:42:58.096Z,14.56
2023-03-26T14:45:46.113Z,14.56
2023-03-26T14:48:54.495Z,14.47
2023-03-26T14:51:58.299Z,14.34
2023-03-26T14:54:31.588Z,14.17
2023-03-26T14:57:06.524Z,14.04
2023-03-26T14:59:47.579Z,13.93
2023-03-26T15:02:38.044Z,13.81
2023-03-26T15:05:25.312Z,13.76
2023-03-26T15:08:24.721Z,13.72
2023-03-26T15:11:36.140Z,13.63
2023-03-26T15:14:24.860Z,13.56
2023-03-26T15:17:09.703Z,13.45
2023-03-26T15:19:44.322Z,13.27
2023-03-26T15:22:54.498Z,13.22
2023-03-26T15:26:00.818Z,13.30
2023-03-26T15:28:57.435Z,13.45
2023-03-26T15:31:47.840Z,13.56
2023-03-26T15:34:38.658Z,13.62
2023-03-26T15:37:26.795Z,13.67
2023-03-26T15:40:19.447Z,13.74
2023-03-26T15:43:21.471Z,13.84
2023-03-26T15:46:08.886Z,13.84
2023-03-26T15:48:46.910Z,13.77
2023-03-26T15:51:52.656Z,13.66
2023-03-26T15:54:37.103Z,13.53
2023-03-26T15:57:20.156Z,13.56
2023-03-26T16:00:00.729Z,13.55
2023-03-26T16:03:10.167Z,13.46
2023-03-26T16:06:14.276Z,13.30
2023-03-26T16:08:54.909Z,13.13
2023-03-26T16:11:43.990Z,13.00
2023-03-26T16:14:23.304Z,12.87
2023-03-26T16:16:54.433Z,12.74
2023-03-26T16:19:23.233Z,12.62
2023-03-26T16:22:02.195Z,12.51
2023-03-26T16:24:34.925Z,12.40
2023-03-26T16:27:05.526Z,12.28
2023-03-26T16:29:56.497Z,12.14
2023-03-26T16:32:36.649Z,12.03
2023-03-26T16:35:39.196Z,11.92
2023-03-26T16:38:16.284Z,11.82
2023-03-26T16:40:59.794Z,11.73
2023-03-26T16:43:43.578Z,11.66
2023-03-26T16:46:47.581Z,11.57
2023-03-26T16:49:31.057Z,11.48
2023-03-26T16:52:09.790Z,11.38
2023-03-26T16:55:01.436Z,11.29
2023-03-26T16:57:37.137Z,11.20
2023-03-26T17:00:16.651Z,11.12
2023-03-26T17:03:03.844Z,11.06
2023-03-26T17:05:51.253Z,10.96
2023-03-26T17:08:53.485Z,10.86
2023-03-26T17:11:38.817Z,10.75
2023-03-26T17:14:26.223Z,10.68
2023-03-26T17:17:30.827Z,10.59
2023-03-26T17:20:51.138Z,10.50
2023-03-26T17:23:28.146Z,10.41
2023-03-26T17:26:15.801Z,10.35
2023-03-26T17:29:09.418Z,10.27
2023-03-26T17:31:53.564Z,10.18
2023-03-26T17:34:49.344Z,10.10
2023-03-26T17:37:19.100Z,10.00
2023-03-26T17:39:47.578Z,9.94
2023-03-26T17:42:16.258Z,9.89
2023-03-26T17:44:49.325Z,9.85
2023-03-26T17:47:33.777Z,9.80
2023-03-26T17:50:37.813Z,9.75
2023-03-26T17:53:31.375Z,9.70
2023-03-26T17:56:11.647Z,9.65
2023-03-26T17:58:48.046Z,9.60
2023-03-26T18:01:38.543Z,9.55
2023-03-26T18:04:15.919Z,9.49
2023-03-26T18:07:16.933Z,9.45
2023-03-26T18:10:20.060Z,9.42
2023-03-26T18:13:15.924Z,9.39
2023-03-26T18:16:09.654Z,9.37
2023-03-26T18:18:51.183Z,9.35
2023-03-26T18:21:33.366Z,9.35
2023-03-26T18:24:05.241Z,9.35
2023-03-26T18:26:45.084Z,9.35
2023-03-26T18:29:20.102Z,9.33
2023-03-26T18:31:53.432Z,9.31
2023-03-26T18:34:22.493Z,9.29
2023-03-26T18:37:03.118Z,9.26
2023-03-26T18:39:31.554Z,9.22
2023-03-26T18:42:00.686Z,9.18
2023-03-26T18:44:29.282Z,9.14
2023-03-26T18:46:57.695Z,9.09
2023-03-26T18:49:30.347Z,9.01
2023-03-26T18:51:58.855Z,8.91
2023-03-26T18:54:32.379Z,8.81
2023-03-26T18:57:15.196Z,8.73
2023-03-26T18:59:45.761Z,8.66
2023-03-26T19:02:14.924Z,8.61
2023-03-26T19:04:47.038Z,8.57
2023-03-26T19:07:25.467Z,8.52
2023-03-26T19:09:56.629Z,8.47
2023-03-26T19:12:34.118Z,8.43
2023-03-26T19:15:16.126Z,8.41
2023-03-26T19:17:53.604Z,8.36
2023-03-26T19:20:26.611Z,8.31
2023-03-26T19:22:57.049Z,8.26
2023-03-26T19:25:31.761Z,8.21
2023-03-26T19:28:00.291Z,8.16
2023-03-26T19:30:35.270Z,8.10
2023-03-26T19:33:13.718Z,8.04
2023-03-26T19:35:45.568Z,7.98
2023-03-26T19:38:19.398Z,7.92
2023-03-26T19:40:48.118Z,7.88
2023-03-26T19:43:17.933Z,7.83
2023-03-26T19:46:04.987Z,7.78
2023-03-26T19:48:46.113Z,7.69
2023-03-26T19:51:21.205Z,7.62
2023-03-26T19:54:00.358Z,7.54
2023-03-26T19:56:30.685Z,7.50
2023-03-26T19:58:59.534Z,7.45
2023-03-26T20:01:30.505Z,7.39
2023-03-26T20:04:02.409Z,7.34
2023-03-26T20:06:42.245Z,7.26
2023-03-26T20:09:13.819Z,7.18
2023-03-26T20:11:42.675Z,7.14
2023-03-26T20:14:17.256Z,7.11
2023-03-26T20:16:46.247Z,7.07
2023-03-26T20:19:15.652Z,7.02
2023-03-26T20:21:45.012Z,6.97
2023-03-26T20:24:16.475Z,6.95
2023-03-26T20:26:48.462Z,6.91
2023-03-26T20:29:17.703Z,6.87
2023-03-26T20:31:46.251Z,6.84
2023-03-26T20:34:23.766Z,6.81
2023-03-26T20:36:56.118Z,6.79
2023-03-26T20:39:25.342Z,6.75
2023-03-26T20:41:55.016Z,6.70
2023-03-26T20:44:26.926Z,6.66
2023-03-26T20:46:59.079Z,6.59
2023-03-26T20:49:29.727Z,6.56
2023-03-26T20:51:59.749Z,6.56
2023-03-26T20:54:30.484Z,6.57
2023-03-26T20:56:59.100Z,6.57
2023-03-26T20:59:28.624Z,6.54
2023-03-26T21:01:58.147Z,6.50
2023-03-26T21:04:27.505Z,6.45
2023-03-26T21:07:07.249Z,6.41
2023-03-26T21:09:45.418Z,6.35
2023-03-26T21:12:30.434Z,6.30
2023-03-26T21:14:59.589Z,6.22
2023-03-26T21:17:28.576Z,6.16
2023-03-26T21:20:00.624Z,6.12
2023-03-26T21:22:40.588Z,6.08
2023-03-26T21:25:23.019Z,6.03
2023-03-26T21:28:17.354Z,6.02
2023-03-26T21:30:47.183Z,6.03
2023-03-26T21:33:15.638Z,6.02
2023-03-26T21:35:45.164Z,5.95
2023-03-26T21:38:18.000Z,5.89
2023-03-26T21:40:52.955Z,5.80
2023-03-26T21:43:27.222Z,5.71
2023-03-26T21:45:59.047Z,5.66
2023-03-26T21:48:29.286Z,5.59
2023-03-26T21:51:02.595Z,5.56
2023-03-26T21:53:31.344Z,5.55
2023-03-26T21:56:21.132Z,5.54
2023-03-26T21:59:21.831Z,5.51
2023-03-26T22:02:02.960Z,5.48
2023-03-26T22:04:57.457Z,5.46
2023-03-26T22:07:48.696Z,5.45
2023-03-26T22:10:17.443Z,5.41
2023-03-26T22:12:46.167Z,5.42
2023-03-26T22:15:15.028Z,5.43
2023-03-26T22:17:43.817Z,5.46
2023-03-26T22:20:14.948Z,5.44
2023-03-26T22:22:49.036Z,5.39
2023-03-26T22:25:20.156Z,5.34
2023-03-26T22:27:50.758Z,5.29
2023-03-26T22:30:21.037Z,5.23
2023-03-26T22:32:50.469Z,5.14
2023-03-26T22:35:19.725Z,5.08
2023-03-26T22:37:48.661Z,5.05
2023-03-26T22:40:18.160Z,5.05
2023-03-26T22:42:46.966Z,5.06
2023-03-26T22:45:15.473Z,5.07
2023-03-26T22:47:45.197Z,5.06
2023-03-26T22:50:13.849Z,5.04
2023-03-26T22:52:42.631Z,5.02
2023-03-26T22:55:12.173Z,4.97
2023-03-26T22:57:41.530Z,4.94
2023-03-26T23:00:16.530Z,4.89
2023-03-26T23:02:46.759Z,4.86
2023-03-26T23:05:17.738Z,4.86
2023-03-26T23:07:46.493Z,4.85
2023-03-26T23:10:14.969Z,4.83
2023-03-26T23:12:43.520Z,4.81
2023-03-26T23:15:12.157Z,4.77
2023-03-26T23:17:42.999Z,4.74
2023-03-26T23:20:15.527Z,4.70
2023-03-26T23:22:48.951Z,4.67
2023-03-26T23:25:17.529Z,4.65
2023-03-26T23:27:46.128Z,4.64
2023-03-26T23:30:19.549Z,4.65
2023-03-26T23:32:50.907Z,4.68
2023-03-26T23:35:19.453Z,4.69
2023-03-26T23:37:50.977Z,4.67
2023-03-26T23:40:22.093Z,4.65
2023-03-26T23:42:50.688Z,4.61
2023-03-26T23:45:25.123Z,4.60
2023-03-26T23:47:54.015Z,4.58
2023-03-26T23:50:29.691Z,4.57
2023-03-26T23:52:58.963Z,4.56
2023-03-26T23:55:35.701Z,4.58
2023-03-26T23:58:09.924Z,4.63
